sensor_id;sensor_type;location;lat;lon;timestamp;temperature;humidity
38592;DHT22;24356;48.460;11.450;2023-07-28T00:01:26;15.60;82.80
38592;DHT22;24356;48.460;11.450;2023-07-28T00:03:52;15.60;82.60
38592;DHT22;24356;48.460;11.450;2023-07-28T00:06:18;15.60;82.90
38592;DHT22;24356;48.460;11.450;2023-07-28T00:08:43;15.50;82.90
38592;DHT22;24356;48.460;11.450;2023-07-28T00:11:13;15.50;82.80
38592;DHT22;24356;48.460;11.450;2023-07-28T00:13:39;15.50;83.10
38592;DHT22;24356;48.460;11.450;2023-07-28T00:16:05;15.50;82.70
38592;DHT22;24356;48.460;11.450;2023-07-28T00:18:31;15.40;82.90
38592;DHT22;24356;48.460;11.450;2023-07-28T00:20:57;15.40;83.10
38592;DHT22;24356;48.460;11.450;2023-07-28T00:23:22;15.40;83.00
38592;DHT22;24356;48.460;11.450;2023-07-28T00:25:48;15.40;83.20
38592;DHT22;24356;48.460;11.450;2023-07-28T00:28:14;15.40;83.00
38592;DHT22;24356;48.460;11.450;2023-07-28T00:30:39;15.30;83.20
38592;DHT22;24356;48.460;11.450;2023-07-28T00:33:05;15.30;83.00
38592;DHT22;24356;48.460;11.450;2023-07-28T00:35:31;15.30;83.20
38592;DHT22;24356;48.460;11.450;2023-07-28T00:37:57;15.30;83.40
38592;DHT22;24356;48.460;11.450;2023-07-28T00:40:23;15.30;83.20
38592;DHT22;24356;48.460;11.450;2023-07-28T00:42:48;15.30;83.50
38592;DHT22;24356;48.460;11.450;2023-07-28T00:45:14;15.20;83.20
38592;DHT22;24356;48.460;11.450;2023-07-28T00:47:40;15.20;83.20
38592;DHT22;24356;48.460;11.450;2023-07-28T00:50:08;15.20;83.20
38592;DHT22;24356;48.460;11.450;2023-07-28T00:52:34;15.20;83.30
38592;DHT22;24356;48.460;11.450;2023-07-28T00:55:00;15.10;83.20
38592;DHT22;24356;48.460;11.450;2023-07-28T00:57:26;15.10;82.90
38592;DHT22;24356;48.460;11.450;2023-07-28T00:59:52;15.10;83.20
38592;DHT22;24356;48.460;11.450;2023-07-28T01:02:19;15.00;83.00
38592;DHT22;24356;48.460;11.450;2023-07-28T01:04:45;15.00;83.10
38592;DHT22;24356;48.460;11.450;2023-07-28T01:07:17;15.00;83.30
38592;DHT22;24356;48.460;11.450;2023-07-28T01:09:55;14.90;83.20
38592;DHT22;24356;48.460;11.450;2023-07-28T01:12:23;14.90;83.30
38592;DHT22;24356;48.460;11.450;2023-07-28T01:14:49;14.90;83.20
38592;DHT22;24356;48.460;11.450;2023-07-28T01:17:15;14.80;83.30
38592;DHT22;24356;48.460;11.450;2023-07-28T01:19:41;14.80;83.40
38592;DHT22;24356;48.460;11.450;2023-07-28T01:25:15;14.70;83.40
38592;DHT22;24356;48.460;11.450;2023-07-28T01:27:43;14.70;83.50
38592;DHT22;24356;48.460;11.450;2023-07-28T01:30:12;14.70;83.60
38592;DHT22;24356;48.460;11.450;2023-07-28T01:32:38;14.60;83.50
38592;DHT22;24356;48.460;11.450;2023-07-28T01:35:04;14.60;83.60
38592;DHT22;24356;48.460;11.450;2023-07-28T01:37:29;14.60;83.60
38592;DHT22;24356;48.460;11.450;2023-07-28T01:39:55;14.50;83.60
38592;DHT22;24356;48.460;11.450;2023-07-28T01:42:23;14.50;83.60
38592;DHT22;24356;48.460;11.450;2023-07-28T01:44:50;14.50;83.60
38592;DHT22;24356;48.460;11.450;2023-07-28T01:47:15;14.50;83.70
38592;DHT22;24356;48.460;11.450;2023-07-28T01:49:41;14.40;83.60
38592;DHT22;24356;48.460;11.450;2023-07-28T01:52:07;14.40;83.70
38592;DHT22;24356;48.460;11.450;2023-07-28T01:54:32;14.40;83.60
38592;DHT22;24356;48.460;11.450;2023-07-28T01:56:58;14.30;83.70
38592;DHT22;24356;48.460;11.450;2023-07-28T01:59:24;14.30;83.70
38592;DHT22;24356;48.460;11.450;2023-07-28T02:01:49;14.30;83.70
38592;DHT22;24356;48.460;11.450;2023-07-28T02:04:15;14.30;83.80
38592;DHT22;24356;48.460;11.450;2023-07-28T02:06:41;14.20;83.80
38592;DHT22;24356;48.460;11.450;2023-07-28T02:09:07;14.20;83.80
38592;DHT22;24356;48.460;11.450;2023-07-28T02:11:33;14.20;83.80
38592;DHT22;24356;48.460;11.450;2023-07-28T02:13:58;14.20;83.90
38592;DHT22;24356;48.460;11.450;2023-07-28T02:16:24;14.10;83.90
38592;DHT22;24356;48.460;11.450;2023-07-28T02:18:50;14.10;83.90
38592;DHT22;24356;48.460;11.450;2023-07-28T02:21:15;14.10;83.90
38592;DHT22;24356;48.460;11.450;2023-07-28T02:23:42;14.10;83.90
38592;DHT22;24356;48.460;11.450;2023-07-28T02:26:09;14.10;83.90
38592;DHT22;24356;48.460;11.450;2023-07-28T02:28:34;14.00;83.90
38592;DHT22;24356;48.460;11.450;2023-07-28T02:31:01;14.00;84.00
38592;DHT22;24356;48.460;11.450;2023-07-28T02:33:27;14.00;84.00
38592;DHT22;24356;48.460;11.450;2023-07-28T02:35:55;13.90;84.10
38592;DHT22;24356;48.460;11.450;2023-07-28T02:38:21;13.90;84.00
38592;DHT22;24356;48.460;11.450;2023-07-28T02:40:46;13.90;84.00
38592;DHT22;24356;48.460;11.450;2023-07-28T02:43:12;13.90;84.00
38592;DHT22;24356;48.460;11.450;2023-07-28T02:45:38;13.80;84.00
38592;DHT22;24356;48.460;11.450;2023-07-28T02:48:03;13.80;84.00
38592;DHT22;24356;48.460;11.450;2023-07-28T02:50:29;13.80;84.10
38592;DHT22;24356;48.460;11.450;2023-07-28T02:52:55;13.80;84.10
38592;DHT22;24356;48.460;11.450;2023-07-28T02:55:20;13.80;84.10
38592;DHT22;24356;48.460;11.450;2023-07-28T02:57:46;13.80;84.00
38592;DHT22;24356;48.460;11.450;2023-07-28T03:00:12;13.80;84.00
38592;DHT22;24356;48.460;11.450;2023-07-28T03:02:37;13.70;84.10
38592;DHT22;24356;48.460;11.450;2023-07-28T03:05:03;13.70;84.00
38592;DHT22;24356;48.460;11.450;2023-07-28T03:07:29;13.70;84.00
38592;DHT22;24356;48.460;11.450;2023-07-28T03:09:55;13.70;84.10
38592;DHT22;24356;48.460;11.450;2023-07-28T03:12:21;13.70;84.00
38592;DHT22;24356;48.460;11.450;2023-07-28T03:14:46;13.70;84.00
38592;DHT22;24356;48.460;11.450;2023-07-28T03:17:13;13.70;84.10
38592;DHT22;24356;48.460;11.450;2023-07-28T03:19:39;13.60;84.00
38592;DHT22;24356;48.460;11.450;2023-07-28T03:22:05;13.60;84.00
38592;DHT22;24356;48.460;11.450;2023-07-28T03:24:30;13.60;84.10
38592;DHT22;24356;48.460;11.450;2023-07-28T03:26:56;13.60;84.30
38592;DHT22;24356;48.460;11.450;2023-07-28T03:29:22;13.60;84.30
38592;DHT22;24356;48.460;11.450;2023-07-28T03:31:47;13.60;84.30
38592;DHT22;24356;48.460;11.450;2023-07-28T03:34:13;13.50;84.20
38592;DHT22;24356;48.460;11.450;2023-07-28T03:36:38;13.50;84.30
38592;DHT22;24356;48.460;11.450;2023-07-28T03:39:04;13.50;84.30
38592;DHT22;24356;48.460;11.450;2023-07-28T03:41:30;13.50;84.20
38592;DHT22;24356;48.460;11.450;2023-07-28T03:43:55;13.50;84.20
38592;DHT22;24356;48.460;11.450;2023-07-28T03:46:21;13.50;84.30
38592;DHT22;24356;48.460;11.450;2023-07-28T03:48:47;13.40;84.30
38592;DHT22;24356;48.460;11.450;2023-07-28T03:51:12;13.40;84.20
38592;DHT22;24356;48.460;11.450;2023-07-28T03:53:38;13.40;84.20
38592;DHT22;24356;48.460;11.450;2023-07-28T03:56:04;13.40;84.30
38592;DHT22;24356;48.460;11.450;2023-07-28T03:58:30;13.40;84.30
38592;DHT22;24356;48.460;11.450;2023-07-28T04:00:55;13.40;84.30
38592;DHT22;24356;48.460;11.450;2023-07-28T04:03:21;13.40;84.30
38592;DHT22;24356;48.460;11.450;2023-07-28T04:05:47;13.40;84.30
38592;DHT22;24356;48.460;11.450;2023-07-28T04:08:12;13.40;84.20
38592;DHT22;24356;48.460;11.450;2023-07-28T04:10:38;13.40;84.30
38592;DHT22;24356;48.460;11.450;2023-07-28T04:13:03;13.40;84.20
38592;DHT22;24356;48.460;11.450;2023-07-28T04:15:29;13.40;84.30
38592;DHT22;24356;48.460;11.450;2023-07-28T04:17:54;13.40;84.40
38592;DHT22;24356;48.460;11.450;2023-07-28T04:20:20;13.40;84.40
38592;DHT22;24356;48.460;11.450;2023-07-28T04:22:46;13.40;84.10
38592;DHT22;24356;48.460;11.450;2023-07-28T04:25:11;13.40;84.50
38592;DHT22;24356;48.460;11.450;2023-07-28T04:27:37;13.40;84.40
38592;DHT22;24356;48.460;11.450;2023-07-28T04:30:03;13.40;84.40
38592;DHT22;24356;48.460;11.450;2023-07-28T04:32:29;13.40;84.40
38592;DHT22;24356;48.460;11.450;2023-07-28T04:34:54;13.40;84.40
38592;DHT22;24356;48.460;11.450;2023-07-28T04:37:20;13.40;85.60
38592;DHT22;24356;48.460;11.450;2023-07-28T04:39:45;13.40;85.10
38592;DHT22;24356;48.460;11.450;2023-07-28T04:42:11;13.40;84.90
38592;DHT22;24356;48.460;11.450;2023-07-28T04:44:38;13.40;86.50
38592;DHT22;24356;48.460;11.450;2023-07-28T04:47:05;13.40;85.60
38592;DHT22;24356;48.460;11.450;2023-07-28T04:49:30;13.40;84.70
38592;DHT22;24356;48.460;11.450;2023-07-28T04:51:57;13.50;86.10
38592;DHT22;24356;48.460;11.450;2023-07-28T04:54:23;13.50;86.70
38592;DHT22;24356;48.460;11.450;2023-07-28T04:56:48;13.50;86.80
38592;DHT22;24356;48.460;11.450;2023-07-28T04:59:18;13.60;87.40
38592;DHT22;24356;48.460;11.450;2023-07-28T05:01:44;13.60;85.80
38592;DHT22;24356;48.460;11.450;2023-07-28T05:04:09;13.70;85.90
38592;DHT22;24356;48.460;11.450;2023-07-28T05:06:35;13.80;86.00
38592;DHT22;24356;48.460;11.450;2023-07-28T05:09:00;13.80;86.60
38592;DHT22;24356;48.460;11.450;2023-07-28T05:11:26;13.80;85.70
38592;DHT22;24356;48.460;11.450;2023-07-28T05:13:51;13.90;85.40
38592;DHT22;24356;48.460;11.450;2023-07-28T05:16:17;13.90;85.50
38592;DHT22;24356;48.460;11.450;2023-07-28T05:18:44;14.00;85.00
38592;DHT22;24356;48.460;11.450;2023-07-28T05:21:09;14.00;84.30
38592;DHT22;24356;48.460;11.450;2023-07-28T05:23:35;14.00;84.40
38592;DHT22;24356;48.460;11.450;2023-07-28T05:26:01;14.10;84.70
38592;DHT22;24356;48.460;11.450;2023-07-28T05:28:26;14.10;84.90
38592;DHT22;24356;48.460;11.450;2023-07-28T05:30:52;14.10;84.10
38592;DHT22;24356;48.460;11.450;2023-07-28T05:33:17;14.20;84.60
38592;DHT22;24356;48.460;11.450;2023-07-28T05:35:43;14.20;84.30
38592;DHT22;24356;48.460;11.450;2023-07-28T05:38:09;14.20;84.10
38592;DHT22;24356;48.460;11.450;2023-07-28T05:40:35;14.30;84.10
38592;DHT22;24356;48.460;11.450;2023-07-28T05:43:01;14.30;84.10
38592;DHT22;24356;48.460;11.450;2023-07-28T05:45:26;14.30;84.00
38592;DHT22;24356;48.460;11.450;2023-07-28T05:47:52;14.40;84.20
38592;DHT22;24356;48.460;11.450;2023-07-28T05:50:17;14.40;84.50
38592;DHT22;24356;48.460;11.450;2023-07-28T05:52:43;14.50;84.40
38592;DHT22;24356;48.460;11.450;2023-07-28T05:55:09;14.50;84.40
38592;DHT22;24356;48.460;11.450;2023-07-28T05:57:36;14.60;84.50
38592;DHT22;24356;48.460;11.450;2023-07-28T06:00:02;14.60;84.50
38592;DHT22;24356;48.460;11.450;2023-07-28T06:02:28;14.70;84.00
38592;DHT22;24356;48.460;11.450;2023-07-28T06:04:53;14.70;84.10
38592;DHT22;24356;48.460;11.450;2023-07-28T06:07:19;14.80;84.20
38592;DHT22;24356;48.460;11.450;2023-07-28T06:09:45;14.90;85.20
38592;DHT22;24356;48.460;11.450;2023-07-28T06:12:12;14.90;85.90
38592;DHT22;24356;48.460;11.450;2023-07-28T06:14:38;15.10;85.90
38592;DHT22;24356;48.460;11.450;2023-07-28T06:17:04;15.20;86.00
38592;DHT22;24356;48.460;11.450;2023-07-28T06:19:29;15.30;86.20
38592;DHT22;24356;48.460;11.450;2023-07-28T06:21:55;15.40;86.60
38592;DHT22;24356;48.460;11.450;2023-07-28T06:24:21;15.50;86.60
38592;DHT22;24356;48.460;11.450;2023-07-28T06:26:48;15.60;86.80
38592;DHT22;24356;48.460;11.450;2023-07-28T06:29:13;15.70;86.80
38592;DHT22;24356;48.460;11.450;2023-07-28T06:31:39;15.80;86.90
38592;DHT22;24356;48.460;11.450;2023-07-28T06:34:05;15.90;86.60
38592;DHT22;24356;48.460;11.450;2023-07-28T06:36:31;16.00;87.20
38592;DHT22;24356;48.460;11.450;2023-07-28T06:38:56;16.10;87.10
38592;DHT22;24356;48.460;11.450;2023-07-28T06:41:22;16.30;87.20
38592;DHT22;24356;48.460;11.450;2023-07-28T06:43:47;16.40;87.10
38592;DHT22;24356;48.460;11.450;2023-07-28T06:46:16;16.50;86.80
38592;DHT22;24356;48.460;11.450;2023-07-28T06:48:42;16.60;86.80
38592;DHT22;24356;48.460;11.450;2023-07-28T06:51:09;16.80;86.90
38592;DHT22;24356;48.460;11.450;2023-07-28T06:53:34;16.90;86.80
38592;DHT22;24356;48.460;11.450;2023-07-28T06:56:00;17.00;86.90
38592;DHT22;24356;48.460;11.450;2023-07-28T06:58:26;17.10;86.70
38592;DHT22;24356;48.460;11.450;2023-07-28T07:00:52;17.30;86.50
38592;DHT22;24356;48.460;11.450;2023-07-28T07:03:18;17.40;86.80
38592;DHT22;24356;48.460;11.450;2023-07-28T07:05:45;17.50;86.50
38592;DHT22;24356;48.460;11.450;2023-07-28T07:08:10;17.70;86.80
38592;DHT22;24356;48.460;11.450;2023-07-28T07:10:36;17.80;86.10
38592;DHT22;24356;48.460;11.450;2023-07-28T07:13:02;17.90;86.00
38592;DHT22;24356;48.460;11.450;2023-07-28T07:15:27;18.10;86.00
38592;DHT22;24356;48.460;11.450;2023-07-28T07:17:54;18.20;85.80
38592;DHT22;24356;48.460;11.450;2023-07-28T07:20:19;18.30;85.60
38592;DHT22;24356;48.460;11.450;2023-07-28T07:22:45;18.40;85.50
38592;DHT22;24356;48.460;11.450;2023-07-28T07:25:11;18.50;85.40
38592;DHT22;24356;48.460;11.450;2023-07-28T07:27:36;18.60;85.30
38592;DHT22;24356;48.460;11.450;2023-07-28T07:30:02;18.70;85.10
38592;DHT22;24356;48.460;11.450;2023-07-28T07:32:29;18.80;85.00
38592;DHT22;24356;48.460;11.450;2023-07-28T07:34:55;18.90;84.80
38592;DHT22;24356;48.460;11.450;2023-07-28T07:37:20;19.00;84.70
38592;DHT22;24356;48.460;11.450;2023-07-28T07:39:46;19.10;84.50
38592;DHT22;24356;48.460;11.450;2023-07-28T07:42:11;19.20;84.40
38592;DHT22;24356;48.460;11.450;2023-07-28T07:44:39;19.30;84.30
38592;DHT22;24356;48.460;11.450;2023-07-28T07:47:12;19.40;84.20
38592;DHT22;24356;48.460;11.450;2023-07-28T07:49:38;19.50;84.20
38592;DHT22;24356;48.460;11.450;2023-07-28T07:52:06;19.60;83.90
38592;DHT22;24356;48.460;11.450;2023-07-28T07:54:32;19.70;84.00
38592;DHT22;24356;48.460;11.450;2023-07-28T07:56:57;19.80;84.10
38592;DHT22;24356;48.460;11.450;2023-07-28T07:59:23;19.80;83.90
38592;DHT22;24356;48.460;11.450;2023-07-28T08:01:53;19.90;83.80
38592;DHT22;24356;48.460;11.450;2023-07-28T08:04:18;20.00;83.90
38592;DHT22;24356;48.460;11.450;2023-07-28T08:06:45;20.10;83.80
38592;DHT22;24356;48.460;11.450;2023-07-28T08:09:11;20.20;83.90
38592;DHT22;24356;48.460;11.450;2023-07-28T08:11:36;20.30;83.70
38592;DHT22;24356;48.460;11.450;2023-07-28T08:14:02;20.40;83.20
38592;DHT22;24356;48.460;11.450;2023-07-28T08:16:28;20.40;82.70
38592;DHT22;24356;48.460;11.450;2023-07-28T08:18:54;20.50;83.30
38592;DHT22;24356;48.460;11.450;2023-07-28T08:21:19;20.50;83.30
38592;DHT22;24356;48.460;11.450;2023-07-28T08:23:45;20.60;83.10
38592;DHT22;24356;48.460;11.450;2023-07-28T08:26:10;20.60;83.10
38592;DHT22;24356;48.460;11.450;2023-07-28T08:28:36;20.70;83.00
38592;DHT22;24356;48.460;11.450;2023-07-28T08:31:02;20.70;83.10
38592;DHT22;24356;48.460;11.450;2023-07-28T08:33:29;20.80;83.00
38592;DHT22;24356;48.460;11.450;2023-07-28T08:35:54;20.90;83.10
38592;DHT22;24356;48.460;11.450;2023-07-28T08:38:20;21.00;83.00
38592;DHT22;24356;48.460;11.450;2023-07-28T08:40:45;21.00;82.90
38592;DHT22;24356;48.460;11.450;2023-07-28T08:43:11;21.10;82.90
38592;DHT22;24356;48.460;11.450;2023-07-28T08:45:37;21.20;82.80
38592;DHT22;24356;48.460;11.450;2023-07-28T08:48:03;21.30;83.10
38592;DHT22;24356;48.460;11.450;2023-07-28T08:50:29;21.30;82.70
38592;DHT22;24356;48.460;11.450;2023-07-28T08:52:56;21.40;82.50
38592;DHT22;24356;48.460;11.450;2023-07-28T08:55:22;21.40;82.20
38592;DHT22;24356;48.460;11.450;2023-07-28T08:57:48;21.50;82.20
38592;DHT22;24356;48.460;11.450;2023-07-28T09:00:14;21.60;82.40
38592;DHT22;24356;48.460;11.450;2023-07-28T09:02:41;21.60;82.70
38592;DHT22;24356;48.460;11.450;2023-07-28T09:05:07;21.70;82.50
38592;DHT22;24356;48.460;11.450;2023-07-28T09:07:37;21.80;82.40
38592;DHT22;24356;48.460;11.450;2023-07-28T09:10:04;21.80;82.50
38592;DHT22;24356;48.460;11.450;2023-07-28T09:12:33;21.90;82.60
38592;DHT22;24356;48.460;11.450;2023-07-28T09:14:59;22.00;82.30
38592;DHT22;24356;48.460;11.450;2023-07-28T09:17:25;22.00;82.10
38592;DHT22;24356;48.460;11.450;2023-07-28T09:19:55;22.10;82.00
38592;DHT22;24356;48.460;11.450;2023-07-28T09:22:21;22.20;81.90
38592;DHT22;24356;48.460;11.450;2023-07-28T09:24:47;22.20;81.90
38592;DHT22;24356;48.460;11.450;2023-07-28T09:27:25;22.20;81.60
38592;DHT22;24356;48.460;11.450;2023-07-28T09:29:52;22.30;81.50
38592;DHT22;24356;48.460;11.450;2023-07-28T09:32:27;22.30;81.10
38592;DHT22;24356;48.460;11.450;2023-07-28T09:35:09;22.40;81.30
38592;DHT22;24356;48.460;11.450;2023-07-28T09:37:37;22.50;81.50
38592;DHT22;24356;48.460;11.450;2023-07-28T09:40:12;22.60;81.90
38592;DHT22;24356;48.460;11.450;2023-07-28T09:42:42;22.70;81.20
38592;DHT22;24356;48.460;11.450;2023-07-28T09:45:10;22.80;81.30
38592;DHT22;24356;48.460;11.450;2023-07-28T09:47:37;22.80;81.00
38592;DHT22;24356;48.460;11.450;2023-07-28T09:50:06;22.90;80.70
38592;DHT22;24356;48.460;11.450;2023-07-28T09:52:37;22.90;80.40
38592;DHT22;24356;48.460;11.450;2023-07-28T09:55:08;22.90;79.70
38592;DHT22;24356;48.460;11.450;2023-07-28T09:57:59;22.90;79.20
38592;DHT22;24356;48.460;11.450;2023-07-28T10:00:25;22.90;78.90
38592;DHT22;24356;48.460;11.450;2023-07-28T10:02:52;22.90;79.00
38592;DHT22;24356;48.460;11.450;2023-07-28T10:05:18;22.90;79.00
38592;DHT22;24356;48.460;11.450;2023-07-28T10:07:47;23.00;78.50
38592;DHT22;24356;48.460;11.450;2023-07-28T10:10:14;23.00;78.20
38592;DHT22;24356;48.460;11.450;2023-07-28T10:12:41;23.00;77.90
38592;DHT22;24356;48.460;11.450;2023-07-28T10:15:13;22.90;77.90
38592;DHT22;24356;48.460;11.450;2023-07-28T10:17:44;22.90;77.80
38592;DHT22;24356;48.460;11.450;2023-07-28T10:20:27;22.90;77.70
38592;DHT22;24356;48.460;11.450;2023-07-28T10:22:53;22.90;77.50
38592;DHT22;24356;48.460;11.450;2023-07-28T10:25:23;22.80;77.50
38592;DHT22;24356;48.460;11.450;2023-07-28T10:27:50;22.80;77.20
38592;DHT22;24356;48.460;11.450;2023-07-28T10:30:16;22.70;77.40
38592;DHT22;24356;48.460;11.450;2023-07-28T10:32:48;22.70;77.20
38592;DHT22;24356;48.460;11.450;2023-07-28T10:37:47;22.50;77.00
38592;DHT22;24356;48.460;11.450;2023-07-28T10:40:30;22.50;76.90
38592;DHT22;24356;48.460;11.450;2023-07-28T10:42:57;22.40;76.90
38592;DHT22;24356;48.460;11.450;2023-07-28T10:45:25;22.30;76.70
38592;DHT22;24356;48.460;11.450;2023-07-28T10:47:53;22.20;77.10
38592;DHT22;24356;48.460;11.450;2023-07-28T10:50:21;22.20;77.20
38592;DHT22;24356;48.460;11.450;2023-07-28T10:52:47;22.10;77.40
38592;DHT22;24356;48.460;11.450;2023-07-28T10:55:17;22.00;77.30
38592;DHT22;24356;48.460;11.450;2023-07-28T10:57:44;22.00;77.20
38592;DHT22;24356;48.460;11.450;2023-07-28T11:00:12;21.90;77.20
38592;DHT22;24356;48.460;11.450;2023-07-28T11:02:49;21.90;77.30
38592;DHT22;24356;48.460;11.450;2023-07-28T11:05:35;21.80;77.60
38592;DHT22;24356;48.460;11.450;2023-07-28T11:08:02;21.70;77.80
38592;DHT22;24356;48.460;11.450;2023-07-28T11:10:31;21.50;78.00
38592;DHT22;24356;48.460;11.450;2023-07-28T11:13:00;21.40;78.50
38592;DHT22;24356;48.460;11.450;2023-07-28T11:15:26;21.20;78.70
38592;DHT22;24356;48.460;11.450;2023-07-28T11:17:52;21.10;78.90
38592;DHT22;24356;48.460;11.450;2023-07-28T11:20:22;21.00;79.20
38592;DHT22;24356;48.460;11.450;2023-07-28T11:23:01;20.90;79.40
38592;DHT22;24356;48.460;11.450;2023-07-28T11:25:30;20.80;79.60
38592;DHT22;24356;48.460;11.450;2023-07-28T11:27:56;20.70;79.70
38592;DHT22;24356;48.460;11.450;2023-07-28T11:30:22;20.60;79.90
38592;DHT22;24356;48.460;11.450;2023-07-28T11:32:50;20.60;79.90
38592;DHT22;24356;48.460;11.450;2023-07-28T11:35:17;20.50;79.90
38592;DHT22;24356;48.460;11.450;2023-07-28T11:37:46;20.50;79.90
38592;DHT22;24356;48.460;11.450;2023-07-28T11:40:13;20.50;80.00
38592;DHT22;24356;48.460;11.450;2023-07-28T11:45:29;20.40;80.20
38592;DHT22;24356;48.460;11.450;2023-07-28T11:48:00;20.40;80.30
38592;DHT22;24356;48.460;11.450;2023-07-28T11:50:34;20.40;80.40
38592;DHT22;24356;48.460;11.450;2023-07-28T11:53:01;20.40;80.50
38592;DHT22;24356;48.460;11.450;2023-07-28T11:55:26;20.40;80.80
38592;DHT22;24356;48.460;11.450;2023-07-28T11:57:54;20.50;81.00
38592;DHT22;24356;48.460;11.450;2023-07-28T12:00:28;20.60;81.20
38592;DHT22;24356;48.460;11.450;2023-07-28T12:03:08;20.60;81.50
38592;DHT22;24356;48.460;11.450;2023-07-28T12:05:57;20.70;81.20
38592;DHT22;24356;48.460;11.450;2023-07-28T12:08:39;20.80;81.20
38592;DHT22;24356;48.460;11.450;2023-07-28T12:11:05;21.00;81.20
38592;DHT22;24356;48.460;11.450;2023-07-28T12:13:31;21.10;81.40
38592;DHT22;24356;48.460;11.450;2023-07-28T12:15:58;21.20;82.00
38592;DHT22;24356;48.460;11.450;2023-07-28T12:18:29;21.40;82.30
38592;DHT22;24356;48.460;11.450;2023-07-28T12:20:56;21.60;82.30
38592;DHT22;24356;48.460;11.450;2023-07-28T12:23:23;21.80;82.30
38592;DHT22;24356;48.460;11.450;2023-07-28T12:25:49;22.00;82.20
38592;DHT22;24356;48.460;11.450;2023-07-28T12:28:16;22.20;82.50
38592;DHT22;24356;48.460;11.450;2023-07-28T12:30:42;22.40;82.30
38592;DHT22;24356;48.460;11.450;2023-07-28T12:33:08;22.70;82.10
38592;DHT22;24356;48.460;11.450;2023-07-28T12:35:36;22.90;81.90
38592;DHT22;24356;48.460;11.450;2023-07-28T12:38:03;23.10;81.60
38592;DHT22;24356;48.460;11.450;2023-07-28T12:40:32;23.30;81.30
38592;DHT22;24356;48.460;11.450;2023-07-28T12:43:00;23.50;81.20
38592;DHT22;24356;48.460;11.450;2023-07-28T12:45:26;23.70;81.20
38592;DHT22;24356;48.460;11.450;2023-07-28T12:47:55;23.90;81.70
38592;DHT22;24356;48.460;11.450;2023-07-28T12:50:22;24.00;80.20
38592;DHT22;24356;48.460;11.450;2023-07-28T12:52:49;24.20;80.00
38592;DHT22;24356;48.460;11.450;2023-07-28T12:55:15;24.40;80.10
38592;DHT22;24356;48.460;11.450;2023-07-28T12:57:41;24.60;79.70
38592;DHT22;24356;48.460;11.450;2023-07-28T13:00:07;24.70;79.40
38592;DHT22;24356;48.460;11.450;2023-07-28T13:02:42;24.90;79.40
38592;DHT22;24356;48.460;11.450;2023-07-28T13:05:09;25.00;79.40
38592;DHT22;24356;48.460;11.450;2023-07-28T13:07:40;25.10;79.20
38592;DHT22;24356;48.460;11.450;2023-07-28T13:10:08;25.30;79.20
38592;DHT22;24356;48.460;11.450;2023-07-28T13:12:37;25.50;78.80
38592;DHT22;24356;48.460;11.450;2023-07-28T13:15:03;25.60;78.60
38592;DHT22;24356;48.460;11.450;2023-07-28T13:17:29;25.70;78.00
38592;DHT22;24356;48.460;11.450;2023-07-28T13:19:55;25.80;77.80
38592;DHT22;24356;48.460;11.450;2023-07-28T13:22:23;25.90;77.80
38592;DHT22;24356;48.460;11.450;2023-07-28T13:24:48;26.00;77.60
38592;DHT22;24356;48.460;11.450;2023-07-28T13:27:14;26.10;77.70
38592;DHT22;24356;48.460;11.450;2023-07-28T13:29:40;26.20;77.10
38592;DHT22;24356;48.460;11.450;2023-07-28T13:32:16;26.30;77.00
38592;DHT22;24356;48.460;11.450;2023-07-28T13:34:42;26.30;77.10
38592;DHT22;24356;48.460;11.450;2023-07-28T13:37:07;26.40;76.50
38592;DHT22;24356;48.460;11.450;2023-07-28T13:39:33;26.40;76.10
38592;DHT22;24356;48.460;11.450;2023-07-28T13:41:59;26.40;75.90
38592;DHT22;24356;48.460;11.450;2023-07-28T13:44:24;26.40;75.40
38592;DHT22;24356;48.460;11.450;2023-07-28T13:46:50;26.30;75.30
38592;DHT22;24356;48.460;11.450;2023-07-28T13:49:15;26.30;75.10
38592;DHT22;24356;48.460;11.450;2023-07-28T13:51:41;26.20;75.00
38592;DHT22;24356;48.460;11.450;2023-07-28T13:54:07;26.10;74.90
38592;DHT22;24356;48.460;11.450;2023-07-28T13:56:32;26.00;74.70
38592;DHT22;24356;48.460;11.450;2023-07-28T13:58:58;25.90;75.20
38592;DHT22;24356;48.460;11.450;2023-07-28T14:01:24;25.90;74.80
38592;DHT22;24356;48.460;11.450;2023-07-28T14:03:49;25.80;75.10
38592;DHT22;24356;48.460;11.450;2023-07-28T14:06:16;25.70;75.00
38592;DHT22;24356;48.460;11.450;2023-07-28T14:08:41;25.60;75.00
38592;DHT22;24356;48.460;11.450;2023-07-28T14:11:07;25.50;74.80
38592;DHT22;24356;48.460;11.450;2023-07-28T14:13:32;25.40;74.70
38592;DHT22;24356;48.460;11.450;2023-07-28T14:15:58;25.30;74.50
38592;DHT22;24356;48.460;11.450;2023-07-28T14:18:24;25.20;74.60
38592;DHT22;24356;48.460;11.450;2023-07-28T14:20:50;25.00;74.80
38592;DHT22;24356;48.460;11.450;2023-07-28T14:23:23;24.90;75.50
38592;DHT22;24356;48.460;11.450;2023-07-28T14:25:50;24.70;75.30
38592;DHT22;24356;48.460;11.450;2023-07-28T14:28:15;24.40;76.20
38592;DHT22;24356;48.460;11.450;2023-07-28T14:30:41;24.20;76.40
38592;DHT22;24356;48.460;11.450;2023-07-28T14:33:15;24.00;76.40
38592;DHT22;24356;48.460;11.450;2023-07-28T14:35:45;23.80;76.60
38592;DHT22;24356;48.460;11.450;2023-07-28T14:38:11;23.60;77.30
38592;DHT22;24356;48.460;11.450;2023-07-28T14:40:37;23.50;77.50
38592;DHT22;24356;48.460;11.450;2023-07-28T14:43:05;23.30;77.80
38592;DHT22;24356;48.460;11.450;2023-07-28T14:45:31;23.20;77.90
38592;DHT22;24356;48.460;11.450;2023-07-28T14:47:56;23.00;78.00
38592;DHT22;24356;48.460;11.450;2023-07-28T14:50:22;22.90;78.20
38592;DHT22;24356;48.460;11.450;2023-07-28T14:52:48;22.90;78.30
38592;DHT22;24356;48.460;11.450;2023-07-28T14:55:14;22.80;78.50
38592;DHT22;24356;48.460;11.450;2023-07-28T14:57:40;22.70;78.60
38592;DHT22;24356;48.460;11.450;2023-07-28T15:00:06;22.60;78.80
38592;DHT22;24356;48.460;11.450;2023-07-28T15:02:33;22.50;78.90
38592;DHT22;24356;48.460;11.450;2023-07-28T15:04:59;22.50;79.00
38592;DHT22;24356;48.460;11.450;2023-07-28T15:07:24;22.50;79.00
38592;DHT22;24356;48.460;11.450;2023-07-28T15:09:50;22.50;79.20
38592;DHT22;24356;48.460;11.450;2023-07-28T15:12:16;22.50;79.10
38592;DHT22;24356;48.460;11.450;2023-07-28T15:14:41;22.50;79.10
38592;DHT22;24356;48.460;11.450;2023-07-28T15:17:07;22.50;79.10
38592;DHT22;24356;48.460;11.450;2023-07-28T15:19:32;22.50;79.20
38592;DHT22;24356;48.460;11.450;2023-07-28T15:21:58;22.50;79.30